Time;durP1;ratioP1;P1;durP2;ratioP2;P2;SDS_P1;SDS_P2;PMS_P1;PMS_P2;Temp;Humidity;BMP_temperature;BMP_pressure;BME280_temperature;BME280_humidity;BME280_pressure;Samples;Min_cycle;Max_cycle;Signal;HPM_P1;HPM_P2
2021/04/03 00:00:23;;;;;;;7.38;2.97;;;22.90;29.90;;;;;;5053641;28;20045;-70
2021/04/03 00:02:48;;;;;;;8.50;3.00;;;22.90;29.40;;;;;;5049925;28;20407;-69
2021/04/03 00:05:15;;;;;;;9.02;3.00;;;22.90;29.40;;;;;;5052193;28;20119;-70
2021/04/03 00:07:40;;;;;;;8.30;3.10;;;22.90;29.40;;;;;;5050090;28;20063;-70
2021/04/03 00:10:12;;;;;;;7.45;2.85;;;22.90;29.40;;;;;;5035399;28;20037;-70
2021/04/03 00:12:37;;;;;;;5.68;3.10;;;22.90;29.50;;;;;;5106627;28;20127;-70
2021/04/03 00:15:04;;;;;;;6.93;3.05;;;22.80;29.40;;;;;;5036086;28;20116;-70
2021/04/03 00:17:30;;;;;;;11.15;3.55;;;22.80;29.40;;;;;;5048268;28;20017;-74
2021/04/03 00:20:15;;;;;;;9.73;3.35;;;22.80;29.40;;;;;;5082077;28;20032;-70
2021/04/03 00:22:41;;;;;;;8.50;3.60;;;22.80;29.40;;;;;;5043579;28;20488;-70
2021/04/03 00:25:07;;;;;;;7.72;3.22;;;22.80;29.40;;;;;;5081991;28;20098;-70
2021/04/03 00:27:33;;;;;;;4.80;1.83;;;22.80;29.50;;;;;;5052821;28;20511;-70
2021/04/03 00:29:58;;;;;;;12.68;3.17;;;22.70;29.50;;;;;;5068059;28;20060;-71
2021/04/03 00:32:24;;;;;;;7.05;3.40;;;22.70;29.50;;;;;;5040254;28;20045;-71
2021/04/03 00:34:50;;;;;;;6.70;2.65;;;22.70;29.50;;;;;;5054063;28;20070;-71
2021/04/03 00:37:15;;;;;;;9.70;3.35;;;22.70;29.50;;;;;;5068431;28;20037;-71
2021/04/03 00:39:47;;;;;;;7.25;3.67;;;22.70;29.50;;;;;;5056879;28;20036;-71
2021/04/03 00:42:16;;;;;;;9.10;2.78;;;22.70;29.50;;;;;;5064010;28;20439;-71
2021/04/03 00:44:48;;;;;;;7.57;3.05;;;22.70;29.60;;;;;;5056851;28;20103;-71
2021/04/03 00:47:14;;;;;;;9.52;3.25;;;22.70;29.60;;;;;;5061118;28;20104;-71
2021/04/03 00:49:44;;;;;;;12.82;3.47;;;22.60;29.50;;;;;;5065002;28;20039;-71
2021/04/03 00:52:11;;;;;;;10.52;3.42;;;22.60;29.50;;;;;;5046506;28;20553;-71
2021/04/03 00:54:37;;;;;;;10.18;2.92;;;22.60;29.50;;;;;;5050087;28;20436;-71
2021/04/03 00:57:03;;;;;;;10.18;3.47;;;22.60;29.50;;;;;;5069238;28;20021;-71
2021/04/03 00:59:29;;;;;;;10.48;3.72;;;22.60;29.50;;;;;;5056020;28;20040;-71
2021/04/03 01:01:55;;;;;;;10.32;2.65;;;22.60;29.60;;;;;;5049031;28;20381;-71
2021/04/03 01:04:20;;;;;;;11.48;3.72;;;22.60;29.60;;;;;;5040434;28;20036;-71
2021/04/03 01:06:46;;;;;;;9.50;3.60;;;22.60;29.60;;;;;;5071988;28;20503;-72
2021/04/03 01:09:11;;;;;;;8.10;3.22;;;22.50;29.60;;;;;;5087973;28;20157;-71
2021/04/03 01:11:40;;;;;;;7.80;3.03;;;22.50;29.60;;;;;;5089543;28;20033;-71
2021/04/03 01:14:08;;;;;;;5.45;2.80;;;22.50;29.60;;;;;;5056480;28;20112;-72
2021/04/03 01:16:42;;;;;;;7.68;3.45;;;22.50;29.60;;;;;;5055704;28;20064;-71
2021/04/03 01:19:27;;;;;;;8.18;3.20;;;22.50;29.70;;;;;;5056114;28;20029;-73
2021/04/03 01:22:16;;;;;;;14.73;3.50;;;22.50;29.70;;;;;;5064315;28;20016;-72
2021/04/03 01:24:53;;;;;;;9.95;3.38;;;22.40;29.60;;;;;;5053920;28;20495;-72
2021/04/03 01:27:23;;;;;;;12.23;3.95;;;22.50;29.70;;;;;;5048861;28;20238;-72
2021/04/03 01:29:50;;;;;;;10.25;3.45;;;22.40;29.70;;;;;;5053498;28;20527;-71
2021/04/03 01:32:18;;;;;;;11.88;3.38;;;22.50;29.70;;;;;;5077521;28;20522;-71
2021/04/03 01:34:44;;;;;;;7.40;2.72;;;22.50;29.70;;;;;;5042989;28;20017;-71
2021/04/03 01:37:12;;;;;;;11.75;3.58;;;22.50;29.70;;;;;;5088401;28;20028;-71
2021/04/03 01:39:38;;;;;;;13.40;2.72;;;22.50;29.60;;;;;;5055025;28;20436;-71
2021/04/03 01:42:05;;;;;;;13.05;3.58;;;22.50;29.60;;;;;;5037259;28;20059;-71
2021/04/03 01:44:33;;;;;;;11.55;3.25;;;22.40;29.60;;;;;;5088965;28;20027;-71
2021/04/03 01:46:58;;;;;;;14.07;3.05;;;22.50;29.70;;;;;;5049065;28;20025;-71
2021/04/03 01:49:27;;;;;;;9.85;3.13;;;22.50;29.60;;;;;;5097484;28;20480;-71
2021/04/03 01:51:53;;;;;;;8.85;2.92;;;22.50;29.50;;;;;;5049561;28;20111;-71
2021/04/03 01:54:19;;;;;;;11.98;3.17;;;22.50;29.60;;;;;;5035679;28;20064;-74
2021/04/03 01:56:47;;;;;;;9.32;2.92;;;22.50;29.50;;;;;;5056099;28;20059;-74
2021/04/03 01:59:12;;;;;;;10.77;2.55;;;22.50;29.50;;;;;;5050178;28;20017;-75
2021/04/03 02:01:38;;;;;;;12.00;2.75;;;22.50;29.50;;;;;;5035015;28;20040;-74
2021/04/03 02:04:05;;;;;;;11.15;2.65;;;22.50;29.50;;;;;;5054678;28;20021;-75
2021/04/03 02:06:30;;;;;;;8.93;2.03;;;22.40;29.50;;;;;;5089625;28;20051;-75
2021/04/03 02:08:58;;;;;;;7.60;2.30;;;22.40;29.50;;;;;;5050719;28;20042;-73
2021/04/03 02:11:24;;;;;;;7.22;2.40;;;22.50;29.50;;;;;;5053897;28;20488;-74
2021/04/03 02:13:53;;;;;;;7.50;2.22;;;22.50;29.50;;;;;;5038895;28;20031;-74
2021/04/03 02:16:18;;;;;;;11.38;2.33;;;22.40;29.50;;;;;;5043328;28;20408;-73
2021/04/03 02:18:44;;;;;;;7.53;2.42;;;22.40;29.50;;;;;;5057349;28;20024;-74
2021/04/03 02:21:09;;;;;;;14.10;2.58;;;22.50;29.50;;;;;;5037245;28;20503;-74
2021/04/03 02:23:36;;;;;;;9.90;2.13;;;22.50;29.50;;;;;;5054109;28;20036;-74
2021/04/03 02:26:05;;;;;;;6.07;2.08;;;22.40;29.50;;;;;;5077073;28;20082;-74
2021/04/03 02:28:30;;;;;;;7.05;1.70;;;22.40;29.60;;;;;;5054023;28;20024;-70
2021/04/03 02:30:56;;;;;;;5.60;1.83;;;22.40;29.60;;;;;;5052444;28;20455;-70
2021/04/03 02:33:22;;;;;;;6.60;1.92;;;22.40;29.60;;;;;;5062693;28;20082;-70
2021/04/03 02:35:47;;;;;;;8.35;2.35;;;22.30;29.60;;;;;;5053119;28;20029;-70
2021/04/03 02:38:14;;;;;;;8.73;2.05;;;22.40;29.60;;;;;;5079090;28;20094;-70
2021/04/03 02:40:39;;;;;;;5.55;1.90;;;22.30;29.60;;;;;;5076866;28;20017;-73
2021/04/03 02:43:32;;;;;;;7.80;1.85;;;22.30;29.60;;;;;;5045681;28;20532;-74
2021/04/03 02:46:20;;;;;;;7.63;1.77;;;22.30;29.60;;;;;;5077587;28;20024;-73
2021/04/03 02:48:51;;;;;;;6.72;1.95;;;22.30;29.60;;;;;;5068069;28;20048;-74
2021/04/03 02:51:20;;;;;;;6.85;1.88;;;22.30;29.60;;;;;;5063280;28;20032;-70
2021/04/03 02:53:45;;;;;;;12.38;2.45;;;22.30;29.70;;;;;;5051356;28;20353;-70
2021/04/03 02:56:11;;;;;;;4.75;1.75;;;22.30;29.60;;;;;;5066402;28;20032;-70
2021/04/03 02:58:37;;;;;;;8.80;1.73;;;22.30;29.60;;;;;;5052072;28;20024;-73
2021/04/03 03:01:02;;;;;;;6.50;1.88;;;22.30;29.60;;;;;;5046487;28;20032;-74
2021/04/03 03:03:31;;;;;;;6.47;1.38;;;22.30;29.60;;;;;;5084948;28;20071;-74
2021/04/03 03:05:57;;;;;;;6.32;0.82;;;22.30;29.70;;;;;;5031495;28;20043;-74
2021/04/03 03:08:23;;;;;;;6.43;1.38;;;22.20;29.60;;;;;;5051742;28;20025;-74
2021/04/03 03:10:49;;;;;;;7.28;1.30;;;22.20;29.60;;;;;;5054214;28;20033;-73
2021/04/03 03:13:14;;;;;;;10.27;1.70;;;22.20;29.60;;;;;;5067263;28;20468;-73
2021/04/03 03:15:40;;;;;;;7.15;1.50;;;22.20;29.60;;;;;;5044912;28;20065;-73
2021/04/03 03:18:05;;;;;;;3.22;1.00;;;22.20;29.60;;;;;;5036091;28;20068;-73
2021/04/03 03:20:31;;;;;;;7.03;1.60;;;22.20;29.50;;;;;;5087279;28;20028;-74
2021/04/03 03:23:00;;;;;;;6.10;1.00;;;22.20;29.50;;;;;;5052676;28;20404;-74
2021/04/03 03:25:38;;;;;;;8.13;1.98;;;22.20;29.50;;;;;;5049553;28;20032;-74
2021/04/03 03:28:04;;;;;;;7.82;1.08;;;22.10;29.40;;;;;;5045472;28;20047;-74
2021/04/03 03:30:30;;;;;;;5.60;1.25;;;22.20;29.50;;;;;;5082220;28;20106;-74
2021/04/03 03:33:05;;;;;;;9.63;1.73;;;22.20;29.50;;;;;;5060689;28;20037;-74
2021/04/03 03:35:30;;;;;;;5.10;1.00;;;22.10;29.50;;;;;;5067148;28;20459;-70
2021/04/03 03:37:56;;;;;;;2.40;0.30;;;22.10;29.50;;;;;;5080908;28;20045;-70
2021/04/03 03:40:21;;;;;;;9.07;1.27;;;22.10;29.50;;;;;;5057528;28;20411;-71
2021/04/03 03:42:47;;;;;;;6.95;1.48;;;22.10;29.50;;;;;;5036755;28;20123;-70
2021/04/03 03:45:13;;;;;;;1.23;0.35;;;22.10;29.50;;;;;;5036205;28;20033;-70
2021/04/03 03:47:39;;;;;;;1.55;0.35;;;22.10;29.50;;;;;;5053819;28;20407;-70
2021/04/03 03:50:06;;;;;;;9.65;1.60;;;22.10;29.50;;;;;;5074836;28;20020;-70
2021/04/03 03:52:31;;;;;;;4.65;1.00;;;22.10;29.50;;;;;;5054619;28;20029;-75
2021/04/03 03:54:57;;;;;;;15.55;1.63;;;22.10;29.50;;;;;;5036121;28;20116;-70
2021/04/03 03:57:34;;;;;;;6.43;1.20;;;22.10;29.40;;;;;;5050630;28;20033;-70
2021/04/03 03:59:59;;;;;;;4.18;1.15;;;22.20;29.40;;;;;;5058250;28;20024;-74
2021/04/03 04:02:25;;;;;;;0.90;0.30;;;22.10;29.40;;;;;;5084486;28;20455;-72
2021/04/03 04:04:51;;;;;;;1.20;0.30;;;22.20;29.50;;;;;;5044459;28;20025;-70
2021/04/03 04:07:16;;;;;;;1.52;0.47;;;22.10;29.40;;;;;;5066772;28;20061;-71
2021/04/03 04:09:42;;;;;;;1.98;0.50;;;22.10;29.40;;;;;;5071651;28;20438;-71
2021/04/03 04:12:08;;;;;;;1.65;0.43;;;22.10;29.40;;;;;;5087519;28;20476;-71
2021/04/03 04:14:34;;;;;;;1.00;0.40;;;22.10;29.40;;;;;;5049955;28;20059;-71
2021/04/03 04:17:00;;;;;;;2.28;0.75;;;22.10;29.40;;;;;;5040325;28;20454;-71
2021/04/03 04:19:26;;;;;;;0.50;0.40;;;22.10;29.40;;;;;;5043182;28;20033;-71
2021/04/03 04:21:51;;;;;;;1.35;0.35;;;22.10;29.40;;;;;;5038704;28;20103;-71
2021/04/03 04:24:17;;;;;;;0.77;0.40;;;22.10;29.40;;;;;;5071093;28;20489;-71
2021/04/03 04:26:43;;;;;;;2.47;0.93;;;22.10;29.40;;;;;;5046975;28;20508;-71
2021/04/03 04:29:08;;;;;;;0.20;0.15;;;22.00;29.40;;;;;;5074107;28;20081;-73
2021/04/03 04:31:34;;;;;;;2.90;0.50;;;22.00;29.40;;;;;;5061346;28;20072;-74
2021/04/03 04:33:59;;;;;;;0.38;0.13;;;22.00;29.40;;;;;;5088730;28;20035;-73
2021/04/03 04:36:25;;;;;;;0.82;0.35;;;22.00;29.40;;;;;;5087032;28;20033;-73
2021/04/03 04:38:50;;;;;;;0.08;0.08;;;22.00;29.40;;;;;;5089102;28;20492;-74
2021/04/03 04:41:16;;;;;;;1.58;0.20;;;22.00;29.40;;;;;;5077631;28;20020;-75
2021/04/03 04:43:42;;;;;;;3.53;0.28;;;22.00;29.40;;;;;;5061709;28;20158;-75
2021/04/03 04:46:07;;;;;;;0.95;0.15;;;22.00;29.40;;;;;;5064935;28;20029;-76
2021/04/03 04:48:33;;;;;;;1.00;0.45;;;22.00;29.40;;;;;;5056799;28;20029;-72
2021/04/03 04:50:58;;;;;;;0.30;0.30;;;22.00;29.40;;;;;;5047876;28;20032;-74
2021/04/03 04:53:24;;;;;;;2.00;0.95;;;21.90;29.40;;;;;;5055944;28;20581;-71
2021/04/03 04:55:50;;;;;;;0.43;0.00;;;21.90;29.50;;;;;;5064760;28;20029;-72
2021/04/03 04:58:16;;;;;;;3.92;0.40;;;22.00;29.50;;;;;;5076030;28;20074;-71
2021/04/03 05:00:41;;;;;;;0.10;0.10;;;21.90;29.40;;;;;;5071663;28;20027;-71
2021/04/03 05:03:07;;;;;;;0.65;0.43;;;21.90;29.40;;;;;;5062357;28;20029;-70
2021/04/03 05:05:33;;;;;;;1.85;0.52;;;21.90;29.50;;;;;;5061147;28;20047;-71
2021/04/03 05:07:58;;;;;;;0.98;0.52;;;21.90;29.50;;;;;;5053583;28;20048;-71
2021/04/03 05:10:24;;;;;;;3.03;0.25;;;21.90;29.50;;;;;;5062933;28;20048;-70
2021/04/03 05:12:49;;;;;;;1.48;0.50;;;21.90;29.60;;;;;;5053222;28;20106;-70
2021/04/03 05:15:15;;;;;;;0.38;0.20;;;21.80;29.50;;;;;;5085166;28;20072;-74
2021/04/03 05:17:41;;;;;;;0.35;0.28;;;21.80;29.60;;;;;;5062763;28;20033;-73
2021/04/03 05:20:07;;;;;;;8.40;0.50;;;21.80;29.60;;;;;;5054633;28;20113;-73
2021/04/03 05:22:32;;;;;;;0.50;0.20;;;21.80;29.60;;;;;;5062307;28;20028;-73
2021/04/03 05:24:58;;;;;;;0.15;0.10;;;21.80;29.70;;;;;;5050660;28;20104;-73
2021/04/03 05:27:26;;;;;;;2.22;0.68;;;21.80;29.70;;;;;;5069436;28;20033;-73
2021/04/03 05:29:52;;;;;;;0.10;0.05;;;21.80;29.70;;;;;;5037343;28;20036;-73
2021/04/03 05:32:18;;;;;;;1.08;0.52;;;21.80;29.80;;;;;;5076917;28;20048;-73
2021/04/03 05:34:43;;;;;;;0.30;0.13;;;21.70;29.80;;;;;;5053164;28;20032;-73
2021/04/03 05:37:09;;;;;;;2.58;0.32;;;21.70;29.80;;;;;;5051239;28;20033;-74
2021/04/03 05:39:34;;;;;;;2.55;0.50;;;21.70;29.80;;;;;;5066173;28;20023;-74
2021/04/03 05:42:00;;;;;;;0.00;0.00;;;21.70;29.80;;;;;;5070524;28;20168;-72
2021/04/03 05:44:25;;;;;;;0.45;0.10;;;21.70;29.80;;;;;;5051575;28;20067;-71
2021/04/03 05:46:51;;;;;;;0.43;0.30;;;21.70;29.80;;;;;;5047567;28;20029;-73
2021/04/03 05:49:19;;;;;;;0.20;0.20;;;21.70;29.80;;;;;;5073022;28;20035;-74
2021/04/03 05:51:46;;;;;;;0.63;0.28;;;21.70;30.40;;;;;;5056184;28;20028;-74
2021/04/03 05:54:12;;;;;;;1.48;0.40;;;21.70;30.00;;;;;;5055518;28;20037;-75
2021/04/03 05:56:37;;;;;;;0.30;0.30;;;21.70;30.00;;;;;;5068473;28;20476;-75
2021/04/03 05:59:03;;;;;;;0.08;0.08;;;21.70;30.00;;;;;;5082293;28;20021;-75
2021/04/03 06:01:28;;;;;;;0.95;0.32;;;21.70;30.00;;;;;;5067650;28;20033;-72
2021/04/03 06:03:57;;;;;;;0.20;0.20;;;21.70;30.00;;;;;;5068294;28;20035;-72
2021/04/03 06:06:25;;;;;;;0.57;0.30;;;21.80;30.00;;;;;;5076604;28;20037;-72
2021/04/03 06:08:51;;;;;;;3.25;0.47;;;21.80;29.90;;;;;;5044683;28;20024;-74
2021/04/03 06:11:21;;;;;;;2.20;0.68;;;21.80;29.90;;;;;;5053047;28;20583;-75
2021/04/03 06:13:56;;;;;;;0.82;0.50;;;21.80;29.90;;;;;;5042031;28;20033;-75
2021/04/03 06:16:31;;;;;;;0.63;0.20;;;21.80;29.80;;;;;;5067611;28;20094;-75
2021/04/03 06:19:17;;;;;;;1.77;0.98;;;21.80;29.80;;;;;;5077003;28;20025;-75
2021/04/03 06:21:52;;;;;;;0.53;0.40;;;21.90;29.90;;;;;;5079706;28;20020;-74
2021/04/03 06:24:47;;;;;;;1.45;0.40;;;21.90;29.80;;;;;;5039842;28;20028;-75
2021/04/03 06:27:16;;;;;;;3.65;0.60;;;21.90;29.70;;;;;;5056245;28;20043;-75
2021/04/03 06:29:50;;;;;;;0.77;0.40;;;21.90;29.70;;;;;;5070856;28;20029;-70
2021/04/03 06:32:28;;;;;;;1.48;0.38;;;21.90;29.60;;;;;;5068978;28;20562;-70
2021/04/03 06:35:31;;;;;;;1.00;0.28;;;22.00;29.60;;;;;;5035255;28;20021;-70
2021/04/03 06:37:57;;;;;;;1.73;0.10;;;22.00;29.60;;;;;;5065662;28;20407;-70
2021/04/03 06:40:22;;;;;;;0.35;0.15;;;22.00;29.60;;;;;;5070605;28;20040;-70
2021/04/03 06:42:55;;;;;;;2.17;0.47;;;22.10;29.70;;;;;;5087062;28;20094;-70
2021/04/03 06:45:25;;;;;;;1.70;0.93;;;22.20;29.80;;;;;;5051562;28;20032;-69
2021/04/03 06:47:55;;;;;;;0.20;0.20;;;22.20;29.80;;;;;;5040451;28;20483;-70
2021/04/03 06:50:22;;;;;;;3.20;0.45;;;22.30;29.80;;;;;;5078515;28;20054;-70
2021/04/03 06:52:47;;;;;;;0.90;0.20;;;22.30;29.80;;;;;;5056890;28;20396;-70
2021/04/03 06:58:35;;;;;;;1.27;0.38;;;22.40;29.80;;;;;;5066735;28;20064;-70
2021/04/03 07:01:00;;;;;;;1.35;0.70;;;22.40;29.80;;;;;;5071787;28;20032;-69
2021/04/03 07:03:38;;;;;;;0.57;0.28;;;22.40;29.90;;;;;;5043179;28;20023;-70
2021/04/03 07:06:04;;;;;;;0.20;0.17;;;22.40;29.90;;;;;;5040240;28;20028;-69
2021/04/03 07:08:30;;;;;;;0.25;0.25;;;22.40;30.00;;;;;;5060602;28;20404;-70
2021/04/03 07:10:55;;;;;;;3.53;0.52;;;22.40;30.00;;;;;;5040442;28;20037;-70
2021/04/03 07:13:21;;;;;;;1.98;0.45;;;22.40;30.10;;;;;;5085585;28;20385;-69
2021/04/03 07:15:46;;;;;;;2.92;0.30;;;22.30;30.00;;;;;;5054975;28;20452;-70
2021/04/03 07:18:12;;;;;;;1.27;0.60;;;22.30;30.20;;;;;;5044142;28;20043;-70
2021/04/03 07:20:38;;;;;;;0.82;0.50;;;22.30;30.30;;;;;;5056039;28;20032;-70
2021/04/03 07:23:07;;;;;;;1.35;0.20;;;22.30;30.30;;;;;;5069880;28;20547;-70
2021/04/03 07:25:34;;;;;;;0.00;0.00;;;22.30;30.40;;;;;;5048164;28;20408;-70
2021/04/03 07:27:59;;;;;;;2.83;0.60;;;22.30;30.40;;;;;;5062639;28;20483;-71
2021/04/03 07:30:34;;;;;;;2.10;0.40;;;22.30;30.40;;;;;;5038064;28;20167;-70
2021/04/03 07:33:16;;;;;;;0.30;0.20;;;22.30;30.40;;;;;;5025217;28;20025;-70
2021/04/03 07:36:08;;;;;;;4.45;0.82;;;22.30;30.40;;;;;;5018122;28;20375;-69
2021/04/03 07:38:35;;;;;;;8.30;0.43;;;22.40;30.40;;;;;;5029155;28;20042;-70
2021/04/03 07:41:02;;;;;;;1.00;0.38;;;22.40;30.50;;;;;;5023022;28;20028;-69
2021/04/03 07:43:44;;;;;;;4.78;0.52;;;22.40;30.60;;;;;;5026881;28;20053;-69
2021/04/03 07:46:19;;;;;;;2.00;0.80;;;22.40;30.60;;;;;;5019187;28;20068;-72
2021/04/03 07:48:46;;;;;;;1.77;0.60;;;22.40;30.60;;;;;;5036189;28;20109;-70
2021/04/03 07:51:24;;;;;;;0.38;0.30;;;22.50;30.40;;;;;;5007005;28;20030;-71
2021/04/03 07:53:51;;;;;;;3.92;0.80;;;22.50;30.30;;;;;;5043738;28;20029;-72
2021/04/03 07:56:19;;;;;;;2.22;0.63;;;22.60;30.30;;;;;;5031584;28;20053;-70
2021/04/03 07:59:10;;;;;;;4.55;0.28;;;22.60;30.20;;;;;;5022429;28;20022;-70
2021/04/03 08:01:36;;;;;;;0.35;0.10;;;22.60;30.10;;;;;;5032499;28;20048;-70
2021/04/03 08:04:25;;;;;;;0.25;0.25;;;22.70;30.20;;;;;;5047585;28;20026;-71
2021/04/03 08:06:50;;;;;;;2.53;0.52;;;22.70;30.20;;;;;;5003511;28;20033;-70
2021/04/03 08:09:17;;;;;;;0.82;0.47;;;22.70;30.10;;;;;;5051983;28;20409;-72
2021/04/03 08:11:48;;;;;;;2.33;0.60;;;22.80;30.00;;;;;;5029115;28;20057;-72
2021/04/03 08:14:17;;;;;;;2.53;0.68;;;22.80;30.00;;;;;;5018865;28;20049;-72
2021/04/03 08:16:43;;;;;;;0.57;0.38;;;22.80;29.90;;;;;;5036463;28;20029;-72
2021/04/03 08:19:08;;;;;;;1.40;0.60;;;22.80;29.80;;;;;;5038358;28;20037;-70
2021/04/03 08:21:47;;;;;;;2.72;0.55;;;22.80;29.80;;;;;;5031885;28;20049;-71
2021/04/03 08:24:16;;;;;;;0.32;0.20;;;22.80;29.80;;;;;;5016134;28;20033;-71
2021/04/03 08:26:43;;;;;;;1.30;0.43;;;22.80;29.80;;;;;;5031949;28;20033;-69
2021/04/03 08:29:25;;;;;;;1.15;0.38;;;22.80;29.90;;;;;;5031484;28;20109;-70
2021/04/03 08:31:51;;;;;;;1.45;0.60;;;22.80;29.90;;;;;;5028433;28;20052;-71
2021/04/03 08:34:16;;;;;;;1.67;0.38;;;22.80;30.00;;;;;;5029197;28;20037;-70
2021/04/03 08:36:42;;;;;;;0.10;0.10;;;22.80;30.00;;;;;;5035125;28;20029;-72
2021/04/03 08:39:09;;;;;;;0.40;0.13;;;22.80;30.00;;;;;;5037232;28;20108;-72
2021/04/03 08:41:36;;;;;;;0.35;0.35;;;22.80;30.60;;;;;;5058427;28;20065;-71
2021/04/03 08:44:01;;;;;;;3.00;0.50;;;22.90;30.00;;;;;;5036222;28;20405;-71
2021/04/03 08:46:27;;;;;;;5.00;0.85;;;23.00;29.90;;;;;;5029443;28;20034;-71
2021/04/03 08:48:57;;;;;;;2.22;1.05;;;23.00;29.80;;;;;;5034100;28;20076;-71
2021/04/03 08:51:22;;;;;;;3.08;0.65;;;23.00;29.70;;;;;;5025215;28;20489;-72
2021/04/03 08:53:48;;;;;;;0.45;0.00;;;23.00;29.60;;;;;;5030664;28;20103;-72
2021/04/03 08:56:25;;;;;;;1.75;0.32;;;23.00;29.60;;;;;;5017773;28;20501;-72
2021/04/03 08:58:51;;;;;;;5.18;0.63;;;23.00;29.50;;;;;;5028601;28;20041;-72
2021/04/03 09:01:16;;;;;;;3.67;0.52;;;23.00;29.60;;;;;;5034180;28;20495;-68
2021/04/03 09:03:43;;;;;;;3.85;0.30;;;23.00;29.70;;;;;;5025569;28;20106;-68
2021/04/03 09:06:09;;;;;;;1.25;0.57;;;23.00;29.80;;;;;;5015953;28;20464;-68
2021/04/03 09:08:34;;;;;;;5.47;0.85;;;22.90;29.80;;;;;;5010822;28;20029;-72
2021/04/03 09:11:02;;;;;;;0.52;0.30;;;22.90;29.90;;;;;;5032659;28;20021;-72
2021/04/03 09:13:35;;;;;;;0.10;0.10;;;22.90;29.90;;;;;;5012973;28;20120;-72
2021/04/03 09:16:10;;;;;;;1.35;0.30;;;22.90;30.00;;;;;;5032055;28;20063;-72
2021/04/03 09:18:36;;;;;;;0.20;0.20;;;22.90;29.90;;;;;;5024488;28;20049;-72
2021/04/03 09:21:02;;;;;;;5.00;0.75;;;23.00;30.50;;;;;;5030034;28;20056;-72
2021/04/03 09:23:27;;;;;;;4.18;0.68;;;23.00;29.90;;;;;;5024644;28;20497;-72
2021/04/03 09:26:03;;;;;;;0.47;0.32;;;23.00;29.80;;;;;;5034516;28;20494;-72
2021/04/03 09:28:42;;;;;;;2.85;0.73;;;23.00;29.80;;;;;;5025458;28;20049;-72
2021/04/03 09:31:08;;;;;;;3.80;0.82;;;23.00;29.80;;;;;;5036485;28;20419;-72
2021/04/03 09:33:47;;;;;;;0.47;0.35;;;23.00;29.80;;;;;;5028418;28;20055;-72
2021/04/03 09:36:14;;;;;;;2.88;0.75;;;23.00;29.80;;;;;;5067499;28;20020;-71
2021/04/03 09:38:40;;;;;;;1.35;0.17;;;23.00;29.80;;;;;;5051568;28;20396;-71
2021/04/03 09:41:28;;;;;;;2.00;0.68;;;23.00;29.80;;;;;;5033655;28;20037;-71
2021/04/03 09:43:54;;;;;;;1.17;0.45;;;23.00;29.90;;;;;;5049992;28;20025;-71
2021/04/03 09:46:20;;;;;;;3.60;0.82;;;23.00;29.90;;;;;;5052537;28;20048;-71
2021/04/03 09:48:46;;;;;;;3.83;0.93;;;23.00;30.00;;;;;;5072048;28;20400;-71
2021/04/03 09:51:12;;;;;;;0.95;0.38;;;23.00;30.00;;;;;;5063852;28;20043;-72
2021/04/03 09:53:37;;;;;;;0.68;0.30;;;23.00;30.00;;;;;;5044976;28;20040;-71
2021/04/03 09:56:04;;;;;;;5.78;1.13;;;22.90;30.00;;;;;;5066610;28;20013;-70
2021/04/03 09:58:33;;;;;;;1.65;0.93;;;23.00;30.00;;;;;;5048454;28;20391;-71
2021/04/03 10:00:58;;;;;;;1.10;0.40;;;23.00;30.00;;;;;;5044538;28;20017;-71
2021/04/03 10:03:24;;;;;;;3.35;0.85;;;23.00;30.00;;;;;;5049902;28;20405;-71
2021/04/03 10:09:12;;;;;;;0.85;0.57;;;23.10;29.80;;;;;;5069357;28;20116;-71
2021/04/03 10:11:37;;;;;;;0.68;0.25;;;23.20;29.70;;;;;;5050208;28;20096;-71
2021/04/03 10:14:03;;;;;;;0.30;0.28;;;23.30;29.60;;;;;;5072000;28;20085;-71
2021/04/03 10:16:28;;;;;;;3.03;0.60;;;23.40;29.50;;;;;;5071875;28;20035;-71
2021/04/03 10:18:54;;;;;;;1.38;0.73;;;23.50;29.50;;;;;;5048991;28;20029;-71
2021/04/03 10:21:19;;;;;;;7.40;1.00;;;23.60;29.30;;;;;;5064366;28;20400;-71
2021/04/03 10:23:45;;;;;;;0.85;0.52;;;23.70;29.70;;;;;;5053656;28;20052;-71
2021/04/03 10:26:11;;;;;;;0.32;0.22;;;23.80;29.20;;;;;;5048631;28;20115;-71
2021/04/03 10:28:36;;;;;;;1.35;0.45;;;23.80;29.10;;;;;;5072309;28;20044;-71
2021/04/03 10:31:02;;;;;;;2.50;0.70;;;23.90;29.10;;;;;;5068651;28;20460;-72
2021/04/03 10:33:28;;;;;;;6.38;0.60;;;24.00;29.10;;;;;;5045572;28;20032;-71
2021/04/03 10:35:53;;;;;;;3.17;0.90;;;24.00;29.10;;;;;;5070130;28;20024;-71
2021/04/03 10:38:19;;;;;;;5.70;0.65;;;24.00;29.10;;;;;;5068368;28;20082;-71
2021/04/03 10:40:44;;;;;;;1.75;0.60;;;24.00;29.10;;;;;;5053043;28;20070;-71
2021/04/03 10:43:10;;;;;;;5.25;1.20;;;24.00;29.10;;;;;;5054056;28;20064;-71
2021/04/03 10:45:36;;;;;;;2.53;1.00;;;24.00;29.10;;;;;;5070390;28;20035;-71
2021/04/03 10:48:01;;;;;;;0.80;0.57;;;24.00;29.10;;;;;;5057300;28;20038;-74
2021/04/03 10:50:27;;;;;;;2.42;0.47;;;24.00;29.10;;;;;;5049021;28;20028;-73
2021/04/03 10:52:52;;;;;;;0.45;0.30;;;24.00;29.10;;;;;;5055192;28;20166;-73
2021/04/03 10:55:18;;;;;;;4.72;1.00;;;23.90;29.20;;;;;;5037995;28;20098;-73
2021/04/03 10:57:43;;;;;;;2.40;1.15;;;23.90;29.30;;;;;;5043201;28;20017;-73
2021/04/03 11:00:10;;;;;;;4.00;1.20;;;23.90;29.40;;;;;;5050390;28;20108;-73
2021/04/03 11:02:38;;;;;;;2.88;0.98;;;23.90;29.40;;;;;;5053085;28;20064;-72
2021/04/03 11:05:04;;;;;;;3.92;1.05;;;23.90;29.40;;;;;;5043351;28;20028;-73
2021/04/03 11:07:30;;;;;;;3.13;1.30;;;23.90;29.60;;;;;;5079018;28;20025;-73
2021/04/03 11:09:56;;;;;;;3.10;0.90;;;24.00;29.30;;;;;;5047348;28;20033;-74
2021/04/03 11:12:21;;;;;;;2.78;0.43;;;24.00;29.20;;;;;;5054896;28;20107;-73
2021/04/03 11:14:47;;;;;;;3.67;0.82;;;24.00;29.10;;;;;;5064517;28;20024;-74
2021/04/03 11:17:21;;;;;;;2.28;0.77;;;24.00;29.00;;;;;;5073878;28;20168;-73
2021/04/03 11:19:47;;;;;;;4.88;1.50;;;24.10;28.90;;;;;;5060708;28;20033;-74
2021/04/03 11:22:13;;;;;;;5.18;1.45;;;24.10;28.80;;;;;;5041784;28;20818;-74
2021/04/03 11:24:38;;;;;;;7.68;1.17;;;24.10;28.60;;;;;;5034337;28;20075;-74
2021/04/03 11:27:25;;;;;;;0.88;0.52;;;24.10;28.50;;;;;;5073963;28;20025;-74
2021/04/03 11:29:51;;;;;;;2.72;0.40;;;24.10;28.40;;;;;;5055296;28;20115;-74
2021/04/03 11:32:16;;;;;;;1.85;0.88;;;24.10;28.20;;;;;;5068599;28;20139;-74
2021/04/03 11:34:42;;;;;;;5.88;1.23;;;24.10;28.10;;;;;;5078207;28;20450;-75
2021/04/03 11:37:08;;;;;;;1.65;0.80;;;24.10;28.00;;;;;;5053301;28;20136;-76
2021/04/03 11:39:33;;;;;;;6.47;1.10;;;24.10;27.90;;;;;;5053142;28;20404;-74
2021/04/03 11:41:59;;;;;;;7.28;0.95;;;24.10;27.90;;;;;;5071575;28;20047;-74
2021/04/03 11:44:26;;;;;;;4.72;1.48;;;24.10;27.90;;;;;;5060049;28;20023;-74
2021/04/03 11:46:51;;;;;;;7.32;1.45;;;24.00;27.80;;;;;;5045499;28;20056;-73
2021/04/03 11:49:17;;;;;;;2.85;1.02;;;24.00;27.70;;;;;;5064398;28;20049;-73
2021/04/03 11:51:43;;;;;;;6.00;0.82;;;24.00;27.70;;;;;;5063599;28;20131;-73
2021/04/03 11:54:09;;;;;;;1.83;0.50;;;23.90;27.70;;;;;;5071000;28;20500;-73
2021/04/03 11:56:34;;;;;;;5.90;1.10;;;23.90;27.70;;;;;;5044922;28;20055;-73
2021/04/03 11:59:00;;;;;;;1.17;0.88;;;24.00;27.60;;;;;;5045245;28;20021;-73
2021/04/03 12:01:25;;;;;;;1.98;0.82;;;24.00;27.50;;;;;;5058919;28;20040;-73
2021/04/03 12:03:51;;;;;;;7.63;1.60;;;24.00;27.60;;;;;;5064446;28;20028;-73
2021/04/03 12:06:16;;;;;;;3.67;0.60;;;24.00;27.30;;;;;;5051624;28;20044;-73
2021/04/03 12:08:42;;;;;;;2.17;1.15;;;24.00;27.20;;;;;;5047607;28;20029;-73
2021/04/03 12:11:08;;;;;;;2.85;1.15;;;24.10;27.10;;;;;;5052852;28;20039;-73
2021/04/03 12:13:33;;;;;;;1.67;0.85;;;24.10;27.00;;;;;;5069254;28;20040;-73
2021/04/03 12:15:59;;;;;;;2.83;0.98;;;24.10;26.90;;;;;;5070037;28;20029;-73
2021/04/03 12:18:24;;;;;;;4.18;1.48;;;24.20;26.90;;;;;;5068337;28;20447;-72
2021/04/03 12:20:50;;;;;;;3.03;0.50;;;24.20;26.80;;;;;;5056712;28;20027;-72
2021/04/03 12:23:19;;;;;;;2.80;0.90;;;24.20;26.70;;;;;;5056129;28;20028;-72
2021/04/03 12:25:44;;;;;;;0.45;0.30;;;24.20;26.70;;;;;;5069982;28;20024;-72
2021/04/03 12:28:10;;;;;;;1.65;0.65;;;24.20;26.70;;;;;;5067489;28;20025;-72
2021/04/03 12:30:35;;;;;;;5.57;1.02;;;24.20;27.20;;;;;;5070341;28;20075;-72
2021/04/03 12:33:02;;;;;;;3.22;0.38;;;24.20;26.70;;;;;;5055727;28;20075;-72
2021/04/03 12:35:28;;;;;;;2.05;1.15;;;24.20;26.70;;;;;;5073871;28;20484;-72
2021/04/03 12:37:54;;;;;;;3.35;0.88;;;24.10;26.60;;;;;;5070108;28;20052;-72
2021/04/03 12:40:19;;;;;;;3.30;1.02;;;24.10;26.70;;;;;;5056205;28;20048;-72
2021/04/03 12:42:48;;;;;;;4.20;1.27;;;24.10;26.70;;;;;;5050865;28;20090;-75
2021/04/03 12:45:14;;;;;;;1.70;1.02;;;24.10;26.70;;;;;;5074664;28;20025;-75
2021/04/03 12:47:39;;;;;;;3.15;1.13;;;24.00;26.70;;;;;;5055280;28;20158;-76
2021/04/03 12:50:06;;;;;;;3.50;0.50;;;24.00;26.70;;;;;;5053590;28;20051;-75
2021/04/03 12:52:32;;;;;;;6.57;1.30;;;24.00;26.80;;;;;;5088693;28;20024;-76
2021/04/03 12:54:57;;;;;;;2.63;1.10;;;24.00;26.80;;;;;;5037589;28;20032;-76